sensor_id;sensor_type;location;lat;lon;timestamp;P1;durP1;ratioP1;P2;durP2;ratioP2
12846;SDS011;6492;48.128;8.320;2022-09-25T00:02:30;4.50;;;4.10;;
12846;SDS011;6492;48.128;8.320;2022-09-25T00:06:32;7.13;;;4.77;;
12846;SDS011;6492;48.128;8.320;2022-09-25T00:10:34;7.60;;;5.23;;
12846;SDS011;6492;48.128;8.320;2022-09-25T00:14:42;5.17;;;4.63;;
12846;SDS011;6492;48.128;8.320;2022-09-25T00:18:44;4.40;;;4.00;;
12846;SDS011;6492;48.128;8.320;2022-09-25T00:23:03;4.73;;;4.23;;
12846;SDS011;6492;48.128;8.320;2022-09-25T00:27:05;5.70;;;5.10;;
12846;SDS011;6492;48.128;8.320;2022-09-25T00:31:09;5.13;;;4.63;;
12846;SDS011;6492;48.128;8.320;2022-09-25T00:35:14;4.47;;;4.07;;
12846;SDS011;6492;48.128;8.320;2022-09-25T00:39:16;6.03;;;5.17;;
12846;SDS011;6492;48.128;8.320;2022-09-25T00:43:32;4.73;;;4.33;;
12846;SDS011;6492;48.128;8.320;2022-09-25T00:47:40;6.00;;;5.40;;
12846;SDS011;6492;48.128;8.320;2022-09-25T00:51:52;4.37;;;3.97;;
12846;SDS011;6492;48.128;8.320;2022-09-25T00:56:00;5.57;;;4.97;;
12846;SDS011;6492;48.128;8.320;2022-09-25T01:00:05;6.27;;;5.27;;
12846;SDS011;6492;48.128;8.320;2022-09-25T01:04:10;6.33;;;5.17;;
12846;SDS011;6492;48.128;8.320;2022-09-25T01:08:14;6.03;;;5.23;;
12846;SDS011;6492;48.128;8.320;2022-09-25T01:12:19;7.07;;;6.07;;
12846;SDS011;6492;48.128;8.320;2022-09-25T01:16:23;8.70;;;6.73;;
12846;SDS011;6492;48.128;8.320;2022-09-25T01:25:08;6.43;;;5.40;;
12846;SDS011;6492;48.128;8.320;2022-09-25T01:29:16;4.63;;;4.23;;
12846;SDS011;6492;48.128;8.320;2022-09-25T01:33:23;5.30;;;4.80;;
12846;SDS011;6492;48.128;8.320;2022-09-25T01:37:31;4.73;;;4.23;;
12846;SDS011;6492;48.128;8.320;2022-09-25T01:41:41;4.10;;;3.70;;
12846;SDS011;6492;48.128;8.320;2022-09-25T01:45:49;4.77;;;4.27;;
12846;SDS011;6492;48.128;8.320;2022-09-25T01:49:54;6.10;;;4.60;;
12846;SDS011;6492;48.128;8.320;2022-09-25T01:54:00;5.23;;;4.57;;
12846;SDS011;6492;48.128;8.320;2022-09-25T01:58:07;4.93;;;4.17;;
12846;SDS011;6492;48.128;8.320;2022-09-25T02:02:13;4.70;;;4.00;;
12846;SDS011;6492;48.128;8.320;2022-09-25T02:06:19;5.13;;;3.90;;
12846;SDS011;6492;48.128;8.320;2022-09-25T02:10:22;4.70;;;4.20;;
12846;SDS011;6492;48.128;8.320;2022-09-25T02:14:30;4.83;;;4.30;;
12846;SDS011;6492;48.128;8.320;2022-09-25T02:18:37;4.57;;;4.17;;
12846;SDS011;6492;48.128;8.320;2022-09-25T02:22:57;4.87;;;4.17;;
12846;SDS011;6492;48.128;8.320;2022-09-25T02:27:08;4.00;;;3.50;;
12846;SDS011;6492;48.128;8.320;2022-09-25T02:31:11;4.30;;;3.90;;
12846;SDS011;6492;48.128;8.320;2022-09-25T02:35:17;4.97;;;4.47;;
12846;SDS011;6492;48.128;8.320;2022-09-25T02:39:19;3.73;;;3.40;;
12846;SDS011;6492;48.128;8.320;2022-09-25T02:43:27;5.23;;;4.60;;
12846;SDS011;6492;48.128;8.320;2022-09-25T02:47:38;5.20;;;3.93;;
12846;SDS011;6492;48.128;8.320;2022-09-25T02:51:51;5.40;;;4.40;;
12846;SDS011;6492;48.128;8.320;2022-09-25T02:56:02;7.20;;;4.70;;
12846;SDS011;6492;48.128;8.320;2022-09-25T03:00:09;6.23;;;4.40;;
12846;SDS011;6492;48.128;8.320;2022-09-25T03:04:12;4.87;;;3.93;;
12846;SDS011;6492;48.128;8.320;2022-09-25T03:08:18;4.43;;;3.87;;
12846;SDS011;6492;48.128;8.320;2022-09-25T03:12:40;3.40;;;3.10;;
12846;SDS011;6492;48.128;8.320;2022-09-25T03:16:43;4.20;;;3.80;;
12846;SDS011;6492;48.128;8.320;2022-09-25T03:20:47;4.00;;;3.60;;
12846;SDS011;6492;48.128;8.320;2022-09-25T03:24:50;4.27;;;3.87;;
12846;SDS011;6492;48.128;8.320;2022-09-25T03:28:53;4.73;;;4.23;;
12846;SDS011;6492;48.128;8.320;2022-09-25T03:32:55;3.80;;;3.50;;
12846;SDS011;6492;48.128;8.320;2022-09-25T03:36:58;3.80;;;3.40;;
12846;SDS011;6492;48.128;8.320;2022-09-25T03:41:01;4.83;;;4.33;;
12846;SDS011;6492;48.128;8.320;2022-09-25T03:45:05;5.90;;;5.10;;
12846;SDS011;6492;48.128;8.320;2022-09-25T03:49:09;6.60;;;5.60;;
12846;SDS011;6492;48.128;8.320;2022-09-25T03:53:11;5.63;;;5.03;;
12846;SDS011;6492;48.128;8.320;2022-09-25T03:57:14;6.23;;;5.23;;
12846;SDS011;6492;48.128;8.320;2022-09-25T04:01:16;6.60;;;5.40;;
12846;SDS011;6492;48.128;8.320;2022-09-25T04:05:20;6.00;;;5.40;;
12846;SDS011;6492;48.128;8.320;2022-09-25T04:09:22;7.13;;;6.27;;
12846;SDS011;6492;48.128;8.320;2022-09-25T04:13:26;7.70;;;6.40;;
12846;SDS011;6492;48.128;8.320;2022-09-25T04:17:29;7.13;;;6.33;;
12846;SDS011;6492;48.128;8.320;2022-09-25T04:21:31;6.60;;;5.90;;
12846;SDS011;6492;48.128;8.320;2022-09-25T04:25:33;6.37;;;5.77;;
12846;SDS011;6492;48.128;8.320;2022-09-25T04:29:36;6.83;;;6.13;;
12846;SDS011;6492;48.128;8.320;2022-09-25T04:33:38;8.60;;;6.73;;
12846;SDS011;6492;48.128;8.320;2022-09-25T04:37:46;6.27;;;5.23;;
12846;SDS011;6492;48.128;8.320;2022-09-25T04:41:49;7.23;;;5.57;;
12846;SDS011;6492;48.128;8.320;2022-09-25T04:45:52;7.37;;;6.60;;
12846;SDS011;6492;48.128;8.320;2022-09-25T04:49:54;8.30;;;6.83;;
12846;SDS011;6492;48.128;8.320;2022-09-25T04:53:56;8.83;;;7.23;;
12846;SDS011;6492;48.128;8.320;2022-09-25T04:57:59;9.10;;;7.37;;
12846;SDS011;6492;48.128;8.320;2022-09-25T05:02:03;6.60;;;5.40;;
12846;SDS011;6492;48.128;8.320;2022-09-25T05:06:05;7.27;;;6.10;;
12846;SDS011;6492;48.128;8.320;2022-09-25T05:10:07;9.03;;;7.60;;
12846;SDS011;6492;48.128;8.320;2022-09-25T05:14:10;7.30;;;6.47;;
12846;SDS011;6492;48.128;8.320;2022-09-25T05:18:14;6.87;;;5.80;;
12846;SDS011;6492;48.128;8.320;2022-09-25T05:22:16;7.47;;;6.17;;
12846;SDS011;6492;48.128;8.320;2022-09-25T05:26:18;6.90;;;6.20;;
12846;SDS011;6492;48.128;8.320;2022-09-25T05:30:22;8.97;;;7.63;;
12846;SDS011;6492;48.128;8.320;2022-09-25T05:34:26;6.10;;;5.50;;
12846;SDS011;6492;48.128;8.320;2022-09-25T05:38:28;6.77;;;5.53;;
12846;SDS011;6492;48.128;8.320;2022-09-25T05:42:31;6.93;;;6.23;;
12846;SDS011;6492;48.128;8.320;2022-09-25T05:46:34;8.53;;;7.50;;
12846;SDS011;6492;48.128;8.320;2022-09-25T05:50:37;6.20;;;5.27;;
12846;SDS011;6492;48.128;8.320;2022-09-25T05:54:39;8.43;;;6.90;;
12846;SDS011;6492;48.128;8.320;2022-09-25T05:58:41;7.70;;;6.37;;
12846;SDS011;6492;48.128;8.320;2022-09-25T06:02:44;6.63;;;5.43;;
12846;SDS011;6492;48.128;8.320;2022-09-25T06:06:47;7.40;;;6.37;;
12846;SDS011;6492;48.128;8.320;2022-09-25T06:10:50;9.70;;;7.60;;
12846;SDS011;6492;48.128;8.320;2022-09-25T06:14:53;7.23;;;6.40;;
12846;SDS011;6492;48.128;8.320;2022-09-25T06:18:55;7.20;;;6.50;;
12846;SDS011;6492;48.128;8.320;2022-09-25T06:27:37;21.40;;;17.83;;
12846;SDS011;6492;48.128;8.320;2022-09-25T06:31:39;11.00;;;9.47;;
12846;SDS011;6492;48.128;8.320;2022-09-25T06:35:42;9.60;;;7.47;;
12846;SDS011;6492;48.128;8.320;2022-09-25T06:39:46;11.03;;;8.20;;
12846;SDS011;6492;48.128;8.320;2022-09-25T06:43:47;9.50;;;7.37;;
12846;SDS011;6492;48.128;8.320;2022-09-25T06:47:49;9.23;;;7.83;;
12846;SDS011;6492;48.128;8.320;2022-09-25T06:51:53;8.60;;;7.33;;
12846;SDS011;6492;48.128;8.320;2022-09-25T06:55:56;9.60;;;7.93;;
12846;SDS011;6492;48.128;8.320;2022-09-25T06:59:59;9.70;;;7.30;;
12846;SDS011;6492;48.128;8.320;2022-09-25T07:04:02;7.17;;;6.30;;
12846;SDS011;6492;48.128;8.320;2022-09-25T07:08:03;7.47;;;6.67;;
12846;SDS011;6492;48.128;8.320;2022-09-25T07:12:07;9.10;;;6.93;;
12846;SDS011;6492;48.128;8.320;2022-09-25T07:16:26;8.23;;;6.60;;
12846;SDS011;6492;48.128;8.320;2022-09-25T07:25:02;6.93;;;6.10;;
12846;SDS011;6492;48.128;8.320;2022-09-25T07:29:12;7.83;;;6.00;;
12846;SDS011;6492;48.128;8.320;2022-09-25T07:33:14;9.93;;;6.87;;
12846;SDS011;6492;48.128;8.320;2022-09-25T07:37:18;8.43;;;6.70;;
12846;SDS011;6492;48.128;8.320;2022-09-25T07:41:20;7.97;;;7.13;;
12846;SDS011;6492;48.128;8.320;2022-09-25T07:45:24;9.57;;;7.03;;
12846;SDS011;6492;48.128;8.320;2022-09-25T07:49:26;8.70;;;7.20;;
12846;SDS011;6492;48.128;8.320;2022-09-25T07:53:44;7.20;;;5.97;;
12846;SDS011;6492;48.128;8.320;2022-09-25T07:57:45;6.97;;;6.00;;
12846;SDS011;6492;48.128;8.320;2022-09-25T08:01:49;8.20;;;5.57;;
12846;SDS011;6492;48.128;8.320;2022-09-25T08:05:55;9.23;;;7.43;;
12846;SDS011;6492;48.128;8.320;2022-09-25T08:09:58;7.63;;;6.90;;
12846;SDS011;6492;48.128;8.320;2022-09-25T08:14:00;9.30;;;7.00;;
12846;SDS011;6492;48.128;8.320;2022-09-25T08:18:03;6.20;;;5.60;;
12846;SDS011;6492;48.128;8.320;2022-09-25T08:22:05;5.67;;;5.17;;
12846;SDS011;6492;48.128;8.320;2022-09-25T08:26:07;5.67;;;5.13;;
12846;SDS011;6492;48.128;8.320;2022-09-25T08:30:10;6.00;;;5.40;;
12846;SDS011;6492;48.128;8.320;2022-09-25T08:34:14;5.17;;;4.43;;
12846;SDS011;6492;48.128;8.320;2022-09-25T08:38:17;5.20;;;4.70;;
12846;SDS011;6492;48.128;8.320;2022-09-25T08:42:21;6.60;;;5.43;;
12846;SDS011;6492;48.128;8.320;2022-09-25T08:51:16;4.87;;;4.30;;
12846;SDS011;6492;48.128;8.320;2022-09-25T08:55:21;5.77;;;4.10;;
12846;SDS011;6492;48.128;8.320;2022-09-25T08:59:48;4.90;;;3.83;;
12846;SDS011;6492;48.128;8.320;2022-09-25T09:03:56;4.17;;;3.50;;
12846;SDS011;6492;48.128;8.320;2022-09-25T09:08:06;3.43;;;3.13;;
12846;SDS011;6492;48.128;8.320;2022-09-25T09:12:12;3.93;;;2.93;;
12846;SDS011;6492;48.128;8.320;2022-09-25T09:16:27;3.37;;;3.07;;
12846;SDS011;6492;48.128;8.320;2022-09-25T09:20:35;3.63;;;3.13;;
12846;SDS011;6492;48.128;8.320;2022-09-25T09:24:49;3.73;;;2.93;;
12846;SDS011;6492;48.128;8.320;2022-09-25T09:33:30;3.50;;;3.20;;
12846;SDS011;6492;48.128;8.320;2022-09-25T09:37:59;3.10;;;2.80;;
12846;SDS011;6492;48.128;8.320;2022-09-25T09:42:11;4.47;;;2.87;;
12846;SDS011;6492;48.128;8.320;2022-09-25T09:46:34;4.33;;;3.03;;
12846;SDS011;6492;48.128;8.320;2022-09-25T09:50:54;3.70;;;3.40;;
12846;SDS011;6492;48.128;8.320;2022-09-25T09:55:18;4.77;;;2.87;;
12846;SDS011;6492;48.128;8.320;2022-09-25T09:59:27;4.33;;;3.50;;
12846;SDS011;6492;48.128;8.320;2022-09-25T10:03:33;4.00;;;3.60;;
12846;SDS011;6492;48.128;8.320;2022-09-25T10:12:11;4.27;;;3.87;;
12846;SDS011;6492;48.128;8.320;2022-09-25T10:16:17;5.33;;;3.97;;
12846;SDS011;6492;48.128;8.320;2022-09-25T10:20:22;4.20;;;3.80;;
12846;SDS011;6492;48.128;8.320;2022-09-25T10:24:45;5.63;;;3.90;;
12846;SDS011;6492;48.128;8.320;2022-09-25T10:42:41;6.27;;;4.37;;
12846;SDS011;6492;48.128;8.320;2022-09-25T10:46:43;5.10;;;4.60;;
12846;SDS011;6492;48.128;8.320;2022-09-25T10:51:06;5.47;;;4.77;;
12846;SDS011;6492;48.128;8.320;2022-09-25T10:55:19;7.47;;;5.77;;
12846;SDS011;6492;48.128;8.320;2022-09-25T10:59:37;7.70;;;6.10;;
12846;SDS011;6492;48.128;8.320;2022-09-25T11:03:43;8.00;;;5.70;;
12846;SDS011;6492;48.128;8.320;2022-09-25T11:07:49;7.43;;;6.13;;
12846;SDS011;6492;48.128;8.320;2022-09-25T11:12:05;7.23;;;6.53;;
12846;SDS011;6492;48.128;8.320;2022-09-25T11:16:11;6.43;;;5.63;;
12846;SDS011;6492;48.128;8.320;2022-09-25T11:25:03;6.60;;;5.90;;
12846;SDS011;6492;48.128;8.320;2022-09-25T11:29:14;7.40;;;6.60;;
12846;SDS011;6492;48.128;8.320;2022-09-25T11:33:23;7.37;;;6.63;;
12846;SDS011;6492;48.128;8.320;2022-09-25T11:37:34;9.87;;;6.83;;
12846;SDS011;6492;48.128;8.320;2022-09-25T11:41:43;8.93;;;7.03;;
12846;SDS011;6492;48.128;8.320;2022-09-25T11:45:57;13.97;;;11.50;;
12846;SDS011;6492;48.128;8.320;2022-09-25T11:50:06;6.47;;;5.77;;
12846;SDS011;6492;48.128;8.320;2022-09-25T11:54:18;7.93;;;6.10;;
12846;SDS011;6492;48.128;8.320;2022-09-25T11:58:35;7.17;;;5.70;;
12846;SDS011;6492;48.128;8.320;2022-09-25T12:02:52;8.07;;;5.67;;
12846;SDS011;6492;48.128;8.320;2022-09-25T12:07:08;5.80;;;5.20;;
12846;SDS011;6492;48.128;8.320;2022-09-25T12:11:34;6.73;;;6.00;;
12846;SDS011;6492;48.128;8.320;2022-09-25T12:15:48;5.83;;;5.23;;
12846;SDS011;6492;48.128;8.320;2022-09-25T12:19:58;6.13;;;5.53;;
12846;SDS011;6492;48.128;8.320;2022-09-25T12:24:10;6.37;;;5.77;;
12846;SDS011;6492;48.128;8.320;2022-09-25T12:28:22;6.20;;;5.60;;
12846;SDS011;6492;48.128;8.320;2022-09-25T12:32:39;6.77;;;5.37;;
12846;SDS011;6492;48.128;8.320;2022-09-25T12:37:06;9.27;;;8.03;;
12846;SDS011;6492;48.128;8.320;2022-09-25T12:41:24;5.70;;;5.13;;
12846;SDS011;6492;48.128;8.320;2022-09-25T12:45:30;7.03;;;6.33;;
12846;SDS011;6492;48.128;8.320;2022-09-25T12:49:39;7.93;;;7.13;;
12846;SDS011;6492;48.128;8.320;2022-09-25T12:53:48;6.83;;;5.10;;
12846;SDS011;6492;48.128;8.320;2022-09-25T12:57:59;7.03;;;5.40;;
12846;SDS011;6492;48.128;8.320;2022-09-25T13:02:10;5.87;;;5.27;;
12846;SDS011;6492;48.128;8.320;2022-09-25T13:06:21;7.53;;;5.50;;
12846;SDS011;6492;48.128;8.320;2022-09-25T13:10:32;5.80;;;5.20;;
12846;SDS011;6492;48.128;8.320;2022-09-25T13:14:41;8.97;;;6.80;;
12846;SDS011;6492;48.128;8.320;2022-09-25T13:18:47;7.63;;;6.00;;
12846;SDS011;6492;48.128;8.320;2022-09-25T13:23:10;18.07;;;12.53;;
12846;SDS011;6492;48.128;8.320;2022-09-25T13:27:16;6.80;;;6.10;;
12846;SDS011;6492;48.128;8.320;2022-09-25T13:31:22;7.00;;;6.27;;
12846;SDS011;6492;48.128;8.320;2022-09-25T13:35:26;5.23;;;4.73;;
12846;SDS011;6492;48.128;8.320;2022-09-25T13:39:29;6.73;;;5.23;;
12846;SDS011;6492;48.128;8.320;2022-09-25T13:48:34;7.23;;;6.43;;
12846;SDS011;6492;48.128;8.320;2022-09-25T13:52:49;6.63;;;5.03;;
12846;SDS011;6492;48.128;8.320;2022-09-25T13:57:10;9.37;;;8.43;;
12846;SDS011;6492;48.128;8.320;2022-09-25T14:01:17;5.87;;;4.97;;
12846;SDS011;6492;48.128;8.320;2022-09-25T14:05:43;6.70;;;5.13;;
12846;SDS011;6492;48.128;8.320;2022-09-25T14:09:46;7.13;;;5.30;;
12846;SDS011;6492;48.128;8.320;2022-09-25T14:13:52;6.87;;;5.50;;
12846;SDS011;6492;48.128;8.320;2022-09-25T14:17:56;5.30;;;4.80;;
12846;SDS011;6492;48.128;8.320;2022-09-25T14:22:03;6.83;;;5.50;;
12846;SDS011;6492;48.128;8.320;2022-09-25T14:26:15;6.20;;;5.37;;
12846;SDS011;6492;48.128;8.320;2022-09-25T14:30:22;7.23;;;5.67;;
12846;SDS011;6492;48.128;8.320;2022-09-25T14:39:07;8.00;;;5.90;;
12846;SDS011;6492;48.128;8.320;2022-09-25T14:43:39;6.73;;;5.97;;
12846;SDS011;6492;48.128;8.320;2022-09-25T14:47:58;7.23;;;5.63;;
12846;SDS011;6492;48.128;8.320;2022-09-25T14:52:12;7.23;;;5.57;;
12846;SDS011;6492;48.128;8.320;2022-09-25T14:56:21;7.60;;;5.67;;
12846;SDS011;6492;48.128;8.320;2022-09-25T15:00:24;7.87;;;6.13;;
12846;SDS011;6492;48.128;8.320;2022-09-25T15:13:05;8.30;;;7.40;;
12846;SDS011;6492;48.128;8.320;2022-09-25T15:17:10;7.80;;;6.77;;
12846;SDS011;6492;48.128;8.320;2022-09-25T15:21:23;8.47;;;6.93;;
12846;SDS011;6492;48.128;8.320;2022-09-25T15:25:28;9.47;;;7.67;;
12846;SDS011;6492;48.128;8.320;2022-09-25T15:29:33;10.60;;;8.23;;
12846;SDS011;6492;48.128;8.320;2022-09-25T15:33:37;10.70;;;7.83;;
12846;SDS011;6492;48.128;8.320;2022-09-25T15:37:41;9.03;;;8.13;;
12846;SDS011;6492;48.128;8.320;2022-09-25T15:41:43;8.33;;;7.53;;
12846;SDS011;6492;48.128;8.320;2022-09-25T15:45:47;11.20;;;8.50;;
12846;SDS011;6492;48.128;8.320;2022-09-25T15:49:54;9.43;;;7.83;;
12846;SDS011;6492;48.128;8.320;2022-09-25T15:53:57;9.30;;;7.60;;
12846;SDS011;6492;48.128;8.320;2022-09-25T15:58:04;8.10;;;7.30;;
12846;SDS011;6492;48.128;8.320;2022-09-25T16:02:16;9.70;;;7.90;;
12846;SDS011;6492;48.128;8.320;2022-09-25T16:06:39;10.33;;;8.03;;
12846;SDS011;6492;48.128;8.320;2022-09-25T16:10:42;9.37;;;7.83;;
12846;SDS011;6492;48.128;8.320;2022-09-25T16:14:44;8.40;;;7.10;;
12846;SDS011;6492;48.128;8.320;2022-09-25T16:18:48;9.67;;;7.77;;
12846;SDS011;6492;48.128;8.320;2022-09-25T16:22:53;9.60;;;7.73;;
12846;SDS011;6492;48.128;8.320;2022-09-25T16:31:04;11.40;;;8.60;;
12846;SDS011;6492;48.128;8.320;2022-09-25T16:35:14;9.60;;;7.63;;
12846;SDS011;6492;48.128;8.320;2022-09-25T16:39:25;11.83;;;8.20;;
12846;SDS011;6492;48.128;8.320;2022-09-25T16:43:30;9.70;;;7.57;;
12846;SDS011;6492;48.128;8.320;2022-09-25T16:52:04;8.90;;;7.67;;
12846;SDS011;6492;48.128;8.320;2022-09-25T16:56:07;9.53;;;7.70;;
12846;SDS011;6492;48.128;8.320;2022-09-25T17:00:13;7.20;;;6.50;;
12846;SDS011;6492;48.128;8.320;2022-09-25T17:04:20;8.07;;;6.73;;
12846;SDS011;6492;48.128;8.320;2022-09-25T17:08:25;8.63;;;6.80;;
12846;SDS011;6492;48.128;8.320;2022-09-25T17:16:59;4.90;;;4.40;;
12846;SDS011;6492;48.128;8.320;2022-09-25T17:21:09;4.10;;;3.70;;
12846;SDS011;6492;48.128;8.320;2022-09-25T17:25:35;4.43;;;3.83;;
12846;SDS011;6492;48.128;8.320;2022-09-25T17:29:40;4.20;;;3.80;;
12846;SDS011;6492;48.128;8.320;2022-09-25T17:33:46;4.40;;;4.00;;
12846;SDS011;6492;48.128;8.320;2022-09-25T17:38:01;4.93;;;4.17;;
12846;SDS011;6492;48.128;8.320;2022-09-25T17:42:04;4.33;;;3.93;;
12846;SDS011;6492;48.128;8.320;2022-09-25T17:46:09;4.50;;;4.10;;
12846;SDS011;6492;48.128;8.320;2022-09-25T17:50:13;4.63;;;4.13;;
12846;SDS011;6492;48.128;8.320;2022-09-25T17:54:15;5.53;;;5.03;;
12846;SDS011;6492;48.128;8.320;2022-09-25T17:58:19;5.43;;;4.77;;
12846;SDS011;6492;48.128;8.320;2022-09-25T18:02:22;6.33;;;5.73;;
12846;SDS011;6492;48.128;8.320;2022-09-25T18:06:28;7.17;;;6.37;;
12846;SDS011;6492;48.128;8.320;2022-09-25T18:10:30;7.10;;;6.33;;
12846;SDS011;6492;48.128;8.320;2022-09-25T18:14:34;8.13;;;7.33;;
12846;SDS011;6492;48.128;8.320;2022-09-25T18:18:35;8.13;;;7.33;;
12846;SDS011;6492;48.128;8.320;2022-09-25T18:26:59;7.97;;;7.20;;
12846;SDS011;6492;48.128;8.320;2022-09-25T18:31:11;7.93;;;7.13;;
12846;SDS011;6492;48.128;8.320;2022-09-25T18:35:13;7.87;;;6.80;;
12846;SDS011;6492;48.128;8.320;2022-09-25T18:39:15;7.03;;;6.33;;
12846;SDS011;6492;48.128;8.320;2022-09-25T18:43:17;6.70;;;6.00;;
12846;SDS011;6492;48.128;8.320;2022-09-25T18:47:21;6.60;;;6.00;;
12846;SDS011;6492;48.128;8.320;2022-09-25T18:51:24;7.30;;;6.57;;
12846;SDS011;6492;48.128;8.320;2022-09-25T18:55:26;7.63;;;6.83;;
12846;SDS011;6492;48.128;8.320;2022-09-25T18:59:28;7.93;;;6.23;;
12846;SDS011;6492;48.128;8.320;2022-09-25T19:03:38;7.13;;;6.43;;
12846;SDS011;6492;48.128;8.320;2022-09-25T19:07:42;8.00;;;6.67;;
12846;SDS011;6492;48.128;8.320;2022-09-25T19:11:44;8.53;;;7.63;;
12846;SDS011;6492;48.128;8.320;2022-09-25T19:15:45;7.87;;;7.10;;
12846;SDS011;6492;48.128;8.320;2022-09-25T19:19:49;7.13;;;6.40;;
12846;SDS011;6492;48.128;8.320;2022-09-25T19:23:51;7.90;;;7.10;;
12846;SDS011;6492;48.128;8.320;2022-09-25T19:27:53;7.23;;;6.53;;
12846;SDS011;6492;48.128;8.320;2022-09-25T19:31:55;7.23;;;6.50;;
12846;SDS011;6492;48.128;8.320;2022-09-25T19:35:58;7.10;;;6.30;;
12846;SDS011;6492;48.128;8.320;2022-09-25T19:40:02;9.23;;;7.60;;
12846;SDS011;6492;48.128;8.320;2022-09-25T19:44:22;7.10;;;6.40;;
12846;SDS011;6492;48.128;8.320;2022-09-25T19:48:39;7.63;;;6.43;;
12846;SDS011;6492;48.128;8.320;2022-09-25T19:52:44;6.70;;;5.80;;
12846;SDS011;6492;48.128;8.320;2022-09-25T19:56:45;6.20;;;5.50;;
12846;SDS011;6492;48.128;8.320;2022-09-25T20:00:47;5.97;;;5.37;;
12846;SDS011;6492;48.128;8.320;2022-09-25T20:04:50;5.57;;;5.00;;
12846;SDS011;6492;48.128;8.320;2022-09-25T20:08:56;5.27;;;4.37;;
12846;SDS011;6492;48.128;8.320;2022-09-25T20:13:00;4.20;;;3.80;;
12846;SDS011;6492;48.128;8.320;2022-09-25T20:17:02;5.17;;;4.03;;
12846;SDS011;6492;48.128;8.320;2022-09-25T20:21:07;3.87;;;3.50;;
12846;SDS011;6492;48.128;8.320;2022-09-25T20:29:44;3.70;;;3.40;;
12846;SDS011;6492;48.128;8.320;2022-09-25T20:33:46;3.97;;;3.60;;
12846;SDS011;6492;48.128;8.320;2022-09-25T20:37:48;4.73;;;4.20;;
12846;SDS011;6492;48.128;8.320;2022-09-25T20:41:51;5.23;;;4.73;;
12846;SDS011;6492;48.128;8.320;2022-09-25T20:45:56;5.47;;;4.33;;
12846;SDS011;6492;48.128;8.320;2022-09-25T20:50:00;5.10;;;4.23;;
12846;SDS011;6492;48.128;8.320;2022-09-25T20:54:02;5.23;;;4.73;;
12846;SDS011;6492;48.128;8.320;2022-09-25T20:58:08;5.10;;;4.60;;
12846;SDS011;6492;48.128;8.320;2022-09-25T21:02:09;4.57;;;4.10;;
12846;SDS011;6492;48.128;8.320;2022-09-25T21:06:13;4.47;;;4.07;;
12846;SDS011;6492;48.128;8.320;2022-09-25T21:10:16;4.50;;;4.10;;
12846;SDS011;6492;48.128;8.320;2022-09-25T21:14:20;4.80;;;4.10;;
12846;SDS011;6492;48.128;8.320;2022-09-25T21:18:23;4.13;;;3.73;;
12846;SDS011;6492;48.128;8.320;2022-09-25T21:22:25;4.97;;;4.47;;
12846;SDS011;6492;48.128;8.320;2022-09-25T21:26:28;4.73;;;4.23;;
12846;SDS011;6492;48.128;8.320;2022-09-25T21:30:32;6.13;;;4.00;;
12846;SDS011;6492;48.128;8.320;2022-09-25T21:34:34;4.23;;;3.83;;
12846;SDS011;6492;48.128;8.320;2022-09-25T21:38:36;3.97;;;3.43;;
12846;SDS011;6492;48.128;8.320;2022-09-25T21:42:38;3.97;;;3.67;;
12846;SDS011;6492;48.128;8.320;2022-09-25T21:46:41;3.50;;;3.20;;
12846;SDS011;6492;48.128;8.320;2022-09-25T21:50:49;3.37;;;3.07;;
12846;SDS011;6492;48.128;8.320;2022-09-25T21:54:52;3.27;;;2.97;;
12846;SDS011;6492;48.128;8.320;2022-09-25T21:58:54;3.27;;;2.97;;
12846;SDS011;6492;48.128;8.320;2022-09-25T22:02:58;3.50;;;3.20;;
12846;SDS011;6492;48.128;8.320;2022-09-25T22:07:00;3.50;;;3.20;;
12846;SDS011;6492;48.128;8.320;2022-09-25T22:11:02;4.00;;;3.60;;
12846;SDS011;6492;48.128;8.320;2022-09-25T22:15:07;3.57;;;3.27;;
12846;SDS011;6492;48.128;8.320;2022-09-25T22:19:13;3.10;;;2.80;;
12846;SDS011;6492;48.128;8.320;2022-09-25T22:23:16;4.00;;;3.60;;
12846;SDS011;6492;48.128;8.320;2022-09-25T22:27:19;4.17;;;3.60;;
12846;SDS011;6492;48.128;8.320;2022-09-25T22:31:22;4.00;;;3.60;;
12846;SDS011;6492;48.128;8.320;2022-09-25T22:35:26;4.40;;;4.00;;
12846;SDS011;6492;48.128;8.320;2022-09-25T22:39:28;3.73;;;3.43;;
12846;SDS011;6492;48.128;8.320;2022-09-25T22:43:30;4.40;;;4.00;;
12846;SDS011;6492;48.128;8.320;2022-09-25T22:47:32;5.00;;;4.07;;
12846;SDS011;6492;48.128;8.320;2022-09-25T22:51:35;4.53;;;3.93;;
12846;SDS011;6492;48.128;8.320;2022-09-25T22:55:37;4.23;;;3.83;;
12846;SDS011;6492;48.128;8.320;2022-09-25T22:59:39;5.13;;;4.63;;
12846;SDS011;6492;48.128;8.320;2022-09-25T23:03:41;4.67;;;4.27;;
12846;SDS011;6492;48.128;8.320;2022-09-25T23:07:44;4.33;;;3.93;;
12846;SDS011;6492;48.128;8.320;2022-09-25T23:11:55;4.33;;;3.93;;
12846;SDS011;6492;48.128;8.320;2022-09-25T23:15:57;4.20;;;3.80;;
12846;SDS011;6492;48.128;8.320;2022-09-25T23:20:03;4.30;;;3.90;;
12846;SDS011;6492;48.128;8.320;2022-09-25T23:24:09;4.30;;;3.90;;
12846;SDS011;6492;48.128;8.320;2022-09-25T23:28:12;4.30;;;3.90;;
12846;SDS011;6492;48.128;8.320;2022-09-25T23:32:14;4.03;;;3.63;;
12846;SDS011;6492;48.128;8.320;2022-09-25T23:36:16;4.10;;;3.70;;
12846;SDS011;6492;48.128;8.320;2022-09-25T23:40:22;4.40;;;4.00;;
12846;SDS011;6492;48.128;8.320;2022-09-25T23:44:23;4.63;;;4.03;;
12846;SDS011;6492;48.128;8.320;2022-09-25T23:48:25;6.40;;;4.33;;
12846;SDS011;6492;48.128;8.320;2022-09-25T23:52:27;4.77;;;4.27;;
12846;SDS011;6492;48.128;8.320;2022-09-25T23:56:31;4.93;;;4.43;;
